Time;durP1;ratioP1;P1;durP2;ratioP2;P2;SDS_P1;SDS_P2;PMS_P1;PMS_P2;Temp;Humidity;BMP_temperature;BMP_pressure;BME280_temperature;BME280_humidity;BME280_pressure;Samples;Min_cycle;Max_cycle;Signal;HPM_P1;HPM_P2
2022/06/17 00:00:26;;;;;;;4.53;2.08;;;;;;;;;;5006591;28;20041;-66
2022/06/17 00:02:53;;;;;;;4.30;2.20;;;;;;;;;;5009266;28;20038;-66
2022/06/17 00:05:20;;;;;;;4.82;2.40;;;;;;;;;;5010199;28;20156;-66
2022/06/17 00:07:47;;;;;;;4.07;2.10;;;;;;;;;;5015535;28;20129;-68
2022/06/17 00:10:19;;;;;;;4.10;1.85;;;;;;;;;;5010421;28;20391;-66
2022/06/17 00:12:46;;;;;;;4.68;2.53;;;;;;;;;;5024870;28;20491;-66
2022/06/17 00:15:13;;;;;;;4.95;2.20;;;;;;;;;;5008451;28;20050;-66
2022/06/17 00:17:41;;;;;;;4.20;2.10;;;;;;;;;;5007485;28;20082;-66
2022/06/17 00:20:13;;;;;;;3.85;2.05;;;;;;;;;;5008294;28;20042;-65
2022/06/17 00:22:41;;;;;;;4.05;2.00;;;;;;;;;;4999609;28;20041;-69
2022/06/17 00:25:28;;;;;;;4.43;2.22;;;;;;;;;;4996566;28;20041;-68
2022/06/17 00:27:55;;;;;;;4.35;1.90;;;;;;;;;;5027078;28;20045;-67
2022/06/17 00:30:23;;;;;;;4.00;2.08;;;;;;;;;;5019023;28;20041;-67
2022/06/17 00:33:01;;;;;;;4.00;2.10;;;;;;;;;;5012833;28;20103;-69
2022/06/17 00:35:32;;;;;;;4.28;2.22;;;;;;;;;;5018657;28;20046;-69
2022/06/17 00:38:00;;;;;;;3.90;2.10;;;;;;;;;;5014258;28;20067;-65
2022/06/17 00:40:27;;;;;;;3.60;1.77;;;;;;;;;;5026981;28;20048;-66
2022/06/17 00:42:54;;;;;;;4.82;1.88;;;;;;;;;;5028618;28;20040;-66
2022/06/17 00:45:37;;;;;;;6.68;2.00;;;;;;;;;;5029411;28;20033;-66
2022/06/17 00:48:04;;;;;;;3.90;2.05;;;;;;;;;;5027472;28;20043;-67
2022/06/17 00:50:50;;;;;;;5.60;2.00;;;;;;;;;;5025612;28;20045;-67
2022/06/17 00:53:18;;;;;;;4.38;2.22;;;;;;;;;;4980041;28;20117;-66
2022/06/17 00:55:55;;;;;;;5.95;2.00;;;;;;;;;;5018335;28;20272;-65
2022/06/17 00:58:24;;;;;;;4.28;2.13;;;;;;;;;;5025397;28;20667;-65
2022/06/17 01:00:58;;;;;;;4.32;1.83;;;;;;;;;;5008522;28;20060;-68
2022/06/17 01:03:35;;;;;;;4.18;2.05;;;;;;;;;;5024891;28;20068;-68
2022/06/17 01:06:05;;;;;;;4.78;2.20;;;;;;;;;;5025304;28;20045;-68
2022/06/17 01:11:25;;;;;;;4.55;2.30;;;;;;;;;;5026100;28;20043;-68
2022/06/17 01:13:52;;;;;;;3.70;1.95;;;;;;;;;;5015316;28;20062;-68
2022/06/17 01:16:22;;;;;;;4.13;1.88;;;;;;;;;;5018609;28;20104;-67
2022/06/17 01:18:50;;;;;;;5.53;2.38;;;;;;;;;;5025218;28;20045;-67
2022/06/17 01:21:29;;;;;;;5.57;1.95;;;;;;;;;;5025578;28;20061;-65
2022/06/17 01:24:01;;;;;;;3.42;1.95;;;;;;;;;;5024297;28;20099;-67
2022/06/17 01:26:27;;;;;;;4.03;2.13;;;;;;;;;;5025800;28;20141;-67
2022/06/17 01:28:54;;;;;;;6.05;3.15;;;;;;;;;;5012902;28;20511;-65
2022/06/17 01:31:22;;;;;;;8.32;2.05;;;;;;;;;;5024843;28;20633;-68
2022/06/17 01:34:01;;;;;;;4.13;1.80;;;;;;;;;;5009334;28;20067;-68
2022/06/17 01:36:37;;;;;;;5.72;2.35;;;;;;;;;;5012074;28;20072;-68
2022/06/17 01:39:03;;;;;;;4.00;2.10;;;;;;;;;;5025802;28;20077;-69
2022/06/17 01:41:31;;;;;;;4.63;1.88;;;;;;;;;;5025030;28;20530;-68
2022/06/17 01:44:00;;;;;;;5.35;2.20;;;;;;;;;;5026008;28;20060;-70
2022/06/17 01:46:34;;;;;;;6.85;2.30;;;;;;;;;;5025621;28;20041;-70
2022/06/17 01:49:24;;;;;;;4.65;2.05;;;;;;;;;;5008650;28;20052;-70
2022/06/17 01:51:56;;;;;;;4.30;2.05;;;;;;;;;;4991160;28;20414;-72
2022/06/17 01:54:23;;;;;;;;;;;;;;;;;;5014718;28;20512;-70
2022/06/17 01:56:52;;;;;;;4.05;2.00;;;;;;;;;;5023186;28;19956;-69
2022/06/17 01:59:37;;;;;;;4.13;1.85;;;;;;;;;;4998578;28;20048;-69
2022/06/17 02:02:05;;;;;;;3.60;1.90;;;;;;;;;;5003496;28;20048;-70
2022/06/17 02:04:36;;;;;;;4.95;1.77;;;;;;;;;;5012685;28;20093;-70
2022/06/17 02:07:21;;;;;;;4.13;1.90;;;;;;;;;;5020865;28;20393;-70
2022/06/17 02:09:48;;;;;;;4.20;2.20;;;;;;;;;;5021754;28;20595;-70
2022/06/17 02:12:16;;;;;;;4.07;2.08;;;;;;;;;;5011315;28;20104;-71
2022/06/17 02:15:02;;;;;;;4.20;1.90;;;;;;;;;;4990078;28;20046;-70
2022/06/17 02:17:32;;;;;;;5.15;2.00;;;;;;;;;;4984543;28;20054;-71
2022/06/17 02:19:59;;;;;;;5.00;2.10;;;;;;;;;;4988361;28;20089;-71
2022/06/17 02:22:29;;;;;;;4.57;2.03;;;;;;;;;;4992509;28;20255;-70
2022/06/17 02:25:03;;;;;;;7.68;2.83;;;;;;;;;;5001974;28;20045;-70
2022/06/17 02:27:32;;;;;;;4.50;2.25;;;;;;;;;;4984275;28;20054;-68
2022/06/17 02:29:58;;;;;;;4.47;2.50;;;;;;;;;;4984456;28;20046;-69
2022/06/17 02:32:28;;;;;;;5.45;2.70;;;;;;;;;;4973168;28;20089;-70
2022/06/17 02:34:58;;;;;;;6.30;3.03;;;;;;;;;;4986242;28;20090;-71
2022/06/17 02:37:25;;;;;;;5.57;2.53;;;;;;;;;;4986701;28;20053;-68
2022/06/17 02:39:56;;;;;;;5.15;2.25;;;;;;;;;;4980921;28;20074;-70
2022/06/17 02:42:30;;;;;;;4.70;2.50;;;;;;;;;;4982257;28;20182;-69
2022/06/17 02:47:55;;;;;;;6.70;3.30;;;;;;;;;;4987275;28;20038;-65
2022/06/17 02:50:24;;;;;;;5.28;2.72;;;;;;;;;;4977956;28;20044;-65
2022/06/17 02:52:51;;;;;;;4.93;2.60;;;;;;;;;;5003851;28;20487;-65
2022/06/17 02:55:27;;;;;;;6.72;2.55;;;;;;;;;;5017017;28;20045;-65
2022/06/17 02:57:56;;;;;;;4.93;2.55;;;;;;;;;;5009923;28;20072;-65
2022/06/17 03:00:23;;;;;;;5.47;2.75;;;;;;;;;;4997162;28;21000;-64
2022/06/17 03:03:02;;;;;;;5.50;2.75;;;;;;;;;;5011186;28;20045;-65
2022/06/17 03:05:31;;;;;;;4.38;2.72;;;;;;;;;;4992649;28;20037;-66
2022/06/17 03:07:59;;;;;;;5.00;2.33;;;;;;;;;;5018336;28;20099;-65
2022/06/17 03:10:29;;;;;;;7.25;2.75;;;;;;;;;;5024142;28;20090;-65
2022/06/17 03:13:02;;;;;;;4.40;2.42;;;;;;;;;;5023808;28;20041;-65
2022/06/17 03:15:29;;;;;;;5.07;2.60;;;;;;;;;;5022976;28;20577;-65
2022/06/17 03:17:55;;;;;;;6.72;2.88;;;;;;;;;;5006810;28;20075;-65
2022/06/17 03:20:25;;;;;;;5.78;3.10;;;;;;;;;;5010680;28;20045;-64
2022/06/17 03:22:56;;;;;;;5.28;2.63;;;;;;;;;;5021978;28;20394;-64
2022/06/17 03:25:38;;;;;;;5.38;2.70;;;;;;;;;;5009884;28;20099;-64
2022/06/17 03:28:08;;;;;;;5.35;2.80;;;;;;;;;;5016489;28;20076;-62
2022/06/17 03:30:40;;;;;;;5.03;2.70;;;;;;;;;;5018099;28;20042;-65
2022/06/17 03:33:09;;;;;;;5.88;3.00;;;;;;;;;;5015337;28;20116;-65
2022/06/17 03:35:38;;;;;;;5.85;2.67;;;;;;;;;;5008724;28;20050;-64
2022/06/17 03:38:15;;;;;;;5.53;2.90;;;;;;;;;;5018883;28;20053;-64
2022/06/17 03:40:45;;;;;;;4.75;2.65;;;;;;;;;;5005561;28;20100;-65
2022/06/17 03:43:13;;;;;;;5.47;3.10;;;;;;;;;;5021020;28;20037;-64
2022/06/17 03:45:43;;;;;;;5.93;2.63;;;;;;;;;;5025514;28;20049;-64
2022/06/17 03:48:13;;;;;;;5.90;2.90;;;;;;;;;;5027226;28;20103;-64
2022/06/17 03:50:43;;;;;;;6.00;2.65;;;;;;;;;;5016737;28;20044;-65
2022/06/17 03:53:19;;;;;;;5.22;2.72;;;;;;;;;;5016138;28;20100;-63
2022/06/17 03:55:45;;;;;;;6.68;2.85;;;;;;;;;;5008844;28;20285;-65
2022/06/17 03:58:15;;;;;;;6.25;2.70;;;;;;;;;;5008561;28;20169;-65
2022/06/17 04:00:51;;;;;;;4.65;2.50;;;;;;;;;;4994786;28;20042;-63
2022/06/17 04:03:20;;;;;;;5.07;2.40;;;;;;;;;;5016026;28;20037;-64
2022/06/17 04:05:48;;;;;;;4.72;2.47;;;;;;;;;;5024929;28;20038;-65
2022/06/17 04:08:14;;;;;;;4.47;2.40;;;;;;;;;;5014355;28;20037;-68
2022/06/17 04:10:41;;;;;;;4.45;2.45;;;;;;;;;;5013936;28;20132;-66
2022/06/17 04:13:11;;;;;;;5.32;2.70;;;;;;;;;;5021035;28;20180;-64
2022/06/17 04:15:46;;;;;;;4.32;2.33;;;;;;;;;;5022093;28;20087;-65
2022/06/17 04:18:13;;;;;;;4.53;2.30;;;;;;;;;;5007997;28;20491;-64
2022/06/17 04:20:49;;;;;;;4.90;2.47;;;;;;;;;;5016166;28;20122;-65
2022/06/17 04:23:22;;;;;;;3.85;2.20;;;;;;;;;;5020812;28;20034;-64
2022/06/17 04:25:49;;;;;;;6.15;2.60;;;;;;;;;;5007660;28;20151;-64
2022/06/17 04:28:19;;;;;;;5.70;2.33;;;;;;;;;;5018208;28;20624;-64
2022/06/17 04:30:47;;;;;;;8.60;2.58;;;;;;;;;;5025908;28;20096;-64
2022/06/17 04:33:21;;;;;;;4.80;2.50;;;;;;;;;;5008669;28;20707;-64
2022/06/17 04:35:49;;;;;;;5.10;2.65;;;;;;;;;;4996780;28;20096;-65
2022/06/17 04:38:15;;;;;;;6.00;2.90;;;;;;;;;;5027168;28;20057;-64
2022/06/17 04:40:43;;;;;;;7.00;2.60;;;;;;;;;;5024993;28;20065;-64
2022/06/17 04:43:17;;;;;;;4.82;2.60;;;;;;;;;;5026396;28;20077;-63
2022/06/17 04:45:53;;;;;;;7.05;2.70;;;;;;;;;;5026556;28;20041;-64
2022/06/17 04:48:20;;;;;;;6.97;2.50;;;;;;;;;;5026025;28;20034;-64
2022/06/17 04:50:47;;;;;;;5.47;2.55;;;;;;;;;;5025205;28;20064;-65
2022/06/17 04:53:13;;;;;;;4.38;2.30;;;;;;;;;;5026379;28;20061;-64
2022/06/17 04:55:41;;;;;;;6.57;2.40;;;;;;;;;;5026658;28;20048;-64
2022/06/17 04:58:12;;;;;;;6.75;2.65;;;;;;;;;;5027443;28;20057;-64
2022/06/17 05:00:38;;;;;;;4.60;2.40;;;;;;;;;;5025697;28;20048;-64
2022/06/17 05:03:05;;;;;;;5.40;2.88;;;;;;;;;;5027671;28;20072;-64
2022/06/17 05:05:34;;;;;;;5.22;2.40;;;;;;;;;;5027166;28;20042;-64
2022/06/17 05:08:02;;;;;;;4.75;2.45;;;;;;;;;;5026003;28;20033;-63
2022/06/17 05:10:32;;;;;;;3.92;2.28;;;;;;;;;;5026363;28;20099;-64
2022/06/17 05:12:58;;;;;;;6.18;2.80;;;;;;;;;;5026134;28;20034;-64
2022/06/17 05:15:25;;;;;;;10.90;3.20;;;;;;;;;;5027579;28;20045;-65
2022/06/17 05:17:54;;;;;;;8.43;3.22;;;;;;;;;;5028375;28;20110;-65
2022/06/17 05:20:22;;;;;;;5.25;2.63;;;;;;;;;;5027043;28;20040;-64
2022/06/17 05:22:55;;;;;;;8.98;3.15;;;;;;;;;;5024305;28;20048;-61
2022/06/17 05:25:27;;;;;;;6.00;2.97;;;;;;;;;;5025684;28;20175;-64
2022/06/17 05:27:53;;;;;;;5.78;2.88;;;;;;;;;;5026302;28;20045;-63
2022/06/17 05:30:20;;;;;;;7.38;3.00;;;;;;;;;;5028012;28;20073;-63
2022/06/17 05:32:52;;;;;;;8.75;2.70;;;;;;;;;;5025594;28;20329;-62
2022/06/17 05:35:19;;;;;;;5.45;2.47;;;;;;;;;;5026734;28;20037;-62
2022/06/17 05:37:46;;;;;;;6.13;2.90;;;;;;;;;;5026060;28;20052;-62
2022/06/17 05:40:13;;;;;;;7.05;3.05;;;;;;;;;;5025776;28;20240;-63
2022/06/17 05:42:40;;;;;;;7.25;3.20;;;;;;;;;;5025799;28;21118;-62
2022/06/17 05:45:07;;;;;;;5.82;3.20;;;;;;;;;;5025425;28;20048;-62
2022/06/17 05:47:34;;;;;;;5.93;2.85;;;;;;;;;;5026691;28;20048;-62
2022/06/17 05:50:01;;;;;;;6.25;3.38;;;;;;;;;;5025398;28;20773;-62
2022/06/17 05:52:27;;;;;;;5.97;3.10;;;;;;;;;;5024833;28;20045;-62
2022/06/17 05:55:02;;;;;;;4.57;2.67;;;;;;;;;;5025905;28;20469;-61
2022/06/17 05:57:29;;;;;;;6.18;3.78;;;;;;;;;;5025831;28;20485;-62
2022/06/17 05:59:55;;;;;;;5.32;3.20;;;;;;;;;;5024818;28;20048;-61
2022/06/17 06:02:22;;;;;;;5.85;3.60;;;;;;;;;;5026319;28;20037;-62
2022/06/17 06:04:49;;;;;;;10.52;3.47;;;;;;;;;;5026627;28;20060;-62
2022/06/17 06:07:15;;;;;;;5.95;3.40;;;;;;;;;;5016357;28;20045;-61
2022/06/17 06:09:42;;;;;;;7.10;3.30;;;;;;;;;;5025064;28;20115;-62
2022/06/17 06:12:09;;;;;;;7.90;3.75;;;;;;;;;;5025050;28;20541;-62
2022/06/17 06:14:36;;;;;;;6.93;3.80;;;;;;;;;;5024856;28;20132;-62
2022/06/17 06:17:02;;;;;;;6.32;4.10;;;;;;;;;;5025602;28;20178;-62
2022/06/17 06:19:31;;;;;;;7.30;3.90;;;;;;;;;;5024901;28;20056;-62
2022/06/17 06:21:57;;;;;;;5.95;3.70;;;;;;;;;;5025329;28;20053;-62
2022/06/17 06:24:24;;;;;;;7.22;4.00;;;;;;;;;;5024573;28;20045;-62
2022/06/17 06:26:51;;;;;;;6.32;3.83;;;;;;;;;;5027143;28;20038;-64
2022/06/17 06:29:17;;;;;;;7.35;4.00;;;;;;;;;;5026994;28;20191;-63
2022/06/17 06:31:44;;;;;;;8.75;4.00;;;;;;;;;;5024205;28;20974;-63
2022/06/17 06:34:13;;;;;;;7.78;3.97;;;;;;;;;;5025394;28;20064;-64
2022/06/17 06:36:40;;;;;;;9.27;4.30;;;;;;;;;;5025098;28;20072;-64
2022/06/17 06:39:06;;;;;;;6.43;3.80;;;;;;;;;;5024578;28;20049;-62
2022/06/17 06:41:33;;;;;;;7.05;4.00;;;;;;;;;;5025349;28;20049;-64
2022/06/17 06:43:59;;;;;;;6.43;3.95;;;;;;;;;;5025903;28;20037;-63
2022/06/17 06:46:26;;;;;;;6.13;3.80;;;;;;;;;;5026586;28;20060;-63
2022/06/17 06:48:53;;;;;;;6.22;3.85;;;;;;;;;;5025158;28;20037;-64
2022/06/17 06:51:20;;;;;;;6.32;4.00;;;;;;;;;;5025509;28;20041;-63
2022/06/17 06:53:47;;;;;;;6.45;4.20;;;;;;;;;;5025474;28;20489;-63
2022/06/17 06:56:14;;;;;;;5.63;3.80;;;;;;;;;;5024880;28;20088;-65
2022/06/17 06:58:40;;;;;;;7.90;4.13;;;;;;;;;;5025466;28;20045;-63
2022/06/17 07:01:07;;;;;;;10.57;4.50;;;;;;;;;;5022974;28;20554;-62
2022/06/17 07:03:33;;;;;;;6.00;3.95;;;;;;;;;;5024637;28;20099;-64
2022/06/17 07:06:01;;;;;;;7.40;4.07;;;;;;;;;;5025961;28;20079;-63
2022/06/17 07:08:29;;;;;;;8.32;4.50;;;;;;;;;;5024576;28;20045;-63
2022/06/17 07:10:59;;;;;;;7.35;4.53;;;;;;;;;;5023457;28;20056;-63
2022/06/17 07:13:27;;;;;;;8.10;4.38;;;;;;;;;;5024000;28;20798;-62
2022/06/17 07:15:54;;;;;;;7.40;4.35;;;;;;;;;;5023542;28;20058;-62
2022/06/17 07:18:25;;;;;;;8.38;4.75;;;;;;;;;;5022514;28;20061;-63
2022/06/17 07:20:54;;;;;;;8.80;5.07;;;;;;;;;;5023765;28;20045;-63
2022/06/17 07:23:25;;;;;;;8.23;4.57;;;;;;;;;;5011076;28;20054;-63
2022/06/17 07:25:52;;;;;;;6.70;4.53;;;;;;;;;;5019453;28;20036;-62
2022/06/17 07:28:21;;;;;;;7.22;4.28;;;;;;;;;;5024730;28;20041;-63
2022/06/17 07:30:49;;;;;;;7.68;4.18;;;;;;;;;;5021827;28;20065;-61
2022/06/17 07:33:16;;;;;;;7.28;4.53;;;;;;;;;;5024314;28;20033;-63
2022/06/17 07:35:44;;;;;;;6.65;4.43;;;;;;;;;;5023509;28;20049;-62
2022/06/17 07:40:59;;;;;;;7.57;4.40;;;;;;;;;;5023441;28;20052;-62
2022/06/17 07:43:25;;;;;;;5.88;4.13;;;;;;;;;;5022505;28;20731;-61
2022/06/17 07:45:52;;;;;;;7.53;4.45;;;;;;;;;;5024228;28;20049;-62
2022/06/17 07:48:18;;;;;;;11.75;4.47;;;;;;;;;;5024614;28;20073;-63
2022/06/17 07:50:46;;;;;;;7.50;4.35;;;;;;;;;;5022816;28;20125;-62
2022/06/17 07:53:13;;;;;;;6.55;4.05;;;;;;;;;;5024042;28;20049;-61
2022/06/17 07:55:41;;;;;;;6.95;4.45;;;;;;;;;;5008712;28;20041;-63
2022/06/17 07:58:08;;;;;;;8.10;4.35;;;;;;;;;;5006647;28;20045;-63
2022/06/17 08:00:36;;;;;;;6.68;4.47;;;;;;;;;;5024183;28;20069;-61
2022/06/17 08:03:03;;;;;;;7.03;4.07;;;;;;;;;;5024482;28;20422;-61
2022/06/17 08:05:30;;;;;;;8.10;4.40;;;;;;;;;;5022247;28;20041;-63
2022/06/17 08:07:57;;;;;;;6.88;3.97;;;;;;;;;;5025285;28;20041;-64
2022/06/17 08:10:26;;;;;;;6.22;4.13;;;;;;;;;;5025964;28;20051;-62
2022/06/17 08:12:53;;;;;;;6.35;4.30;;;;;;;;;;5026800;28;20037;-64
2022/06/17 08:15:20;;;;;;;6.40;3.90;;;;;;;;;;5007853;28;20048;-63
2022/06/17 08:17:47;;;;;;;7.63;4.05;;;;;;;;;;5025000;28;20084;-63
2022/06/17 08:20:18;;;;;;;7.07;4.47;;;;;;;;;;5023592;28;21851;-62
2022/06/17 08:22:45;;;;;;;7.28;4.47;;;;;;;;;;5026705;28;20029;-63
2022/06/17 08:25:12;;;;;;;8.35;4.50;;;;;;;;;;5026391;28;20057;-62
2022/06/17 08:27:42;;;;;;;7.82;4.55;;;;;;;;;;5025951;28;20128;-63
2022/06/17 08:30:09;;;;;;;8.02;5.13;;;;;;;;;;5026022;28;20498;-62
2022/06/17 08:32:45;;;;;;;8.95;4.95;;;;;;;;;;5025097;28;20564;-61
2022/06/17 08:35:12;;;;;;;7.68;4.97;;;;;;;;;;5026333;28;20049;-61
2022/06/17 08:37:39;;;;;;;8.88;5.10;;;;;;;;;;5025328;28;20096;-60
2022/06/17 08:40:14;;;;;;;6.90;4.65;;;;;;;;;;5025630;28;20046;-61
2022/06/17 08:42:49;;;;;;;6.65;4.57;;;;;;;;;;5011657;28;20541;-61
2022/06/17 08:45:16;;;;;;;7.13;4.47;;;;;;;;;;5026103;28;20040;-61
2022/06/17 08:47:59;;;;;;;6.93;4.47;;;;;;;;;;5025739;28;20037;-61
2022/06/17 08:50:28;;;;;;;7.45;4.60;;;;;;;;;;5025893;28;20249;-61
2022/06/17 08:53:07;;;;;;;9.07;4.88;;;;;;;;;;5025756;28;20771;-61
2022/06/17 08:55:49;;;;;;;7.63;4.22;;;;;;;;;;5026109;28;20136;-61
2022/06/17 08:58:22;;;;;;;8.98;4.43;;;;;;;;;;5025906;28;20076;-61
2022/06/17 09:01:07;;;;;;;8.18;4.15;;;;;;;;;;5025647;28;20055;-63
2022/06/17 09:03:52;;;;;;;6.55;4.47;;;;;;;;;;5025739;28;20435;-62
2022/06/17 09:06:41;;;;;;;6.13;3.95;;;;;;;;;;5026480;28;20530;-62
2022/06/17 09:09:23;;;;;;;6.80;4.05;;;;;;;;;;5024855;28;20125;-62
2022/06/17 09:11:50;;;;;;;8.68;4.32;;;;;;;;;;5007049;28;20512;-62
2022/06/17 09:14:32;;;;;;;6.63;4.50;;;;;;;;;;5011922;28;20038;-62
2022/06/17 09:17:04;;;;;;;7.05;4.47;;;;;;;;;;5026110;28;21712;-63
2022/06/17 09:19:32;;;;;;;7.53;4.30;;;;;;;;;;5025463;28;20503;-62
2022/06/17 09:22:05;;;;;;;7.35;4.30;;;;;;;;;;5026159;28;20053;-62
2022/06/17 09:24:34;;;;;;;6.03;4.28;;;;;;;;;;5023246;28;20049;-62
2022/06/17 09:27:05;;;;;;;7.50;4.80;;;;;;;;;;5008206;28;20448;-60
2022/06/17 09:29:42;;;;;;;7.13;4.78;;;;;;;;;;5025922;28;20041;-62
2022/06/17 09:32:17;;;;;;;7.70;5.00;;;;;;;;;;5026268;28;20049;-62
2022/06/17 09:34:56;;;;;;;8.30;5.03;;;;;;;;;;5026086;28;20045;-62
2022/06/17 09:37:29;;;;;;;8.35;4.95;;;;;;;;;;5026509;28;20497;-61
2022/06/17 09:40:02;;;;;;;7.15;4.97;;;;;;;;;;5026108;28;20088;-62
2022/06/17 09:42:38;;;;;;;8.95;5.65;;;;;;;;;;5025481;28;20044;-62
2022/06/17 09:45:22;;;;;;;10.88;6.07;;;;;;;;;;5026567;28;20052;-62
2022/06/17 09:47:52;;;;;;;7.22;4.95;;;;;;;;;;5006281;28;20041;-62
2022/06/17 09:50:19;;;;;;;8.77;5.57;;;;;;;;;;5007768;28;20045;-63
2022/06/17 09:52:54;;;;;;;8.23;5.35;;;;;;;;;;5024953;28;20124;-62
2022/06/17 09:55:27;;;;;;;12.38;5.57;;;;;;;;;;5026331;28;21782;-62
2022/06/17 09:58:03;;;;;;;9.52;5.88;;;;;;;;;;5025426;28;20045;-62
2022/06/17 10:00:32;;;;;;;9.35;5.68;;;;;;;;;;5025332;28;20132;-62
2022/06/17 10:03:17;;;;;;;8.13;5.53;;;;;;;;;;5028056;28;20038;-62
2022/06/17 10:05:43;;;;;;;8.10;5.47;;;;;;;;;;5024432;28;20049;-61
2022/06/17 10:08:13;;;;;;;9.32;5.07;;;;;;;;;;5026093;28;20064;-62
2022/06/17 10:10:42;;;;;;;7.78;5.32;;;;;;;;;;5025158;28;20128;-63
2022/06/17 10:13:12;;;;;;;8.57;5.20;;;;;;;;;;5027343;28;20535;-63
2022/06/17 10:18:50;;;;;;;8.05;5.15;;;;;;;;;;4999571;28;20049;-62
2022/06/17 10:21:21;;;;;;;7.05;5.20;;;;;;;;;;5026094;28;20041;-62
2022/06/17 10:23:50;;;;;;;8.50;5.40;;;;;;;;;;5024912;28;20506;-62
2022/06/17 10:26:23;;;;;;;9.60;5.70;;;;;;;;;;5026138;28;20053;-62
2022/06/17 10:28:59;;;;;;;7.50;5.00;;;;;;;;;;5026711;28;20049;-61
2022/06/17 10:31:26;;;;;;;8.82;5.85;;;;;;;;;;5024564;28;20677;-61
2022/06/17 10:33:55;;;;;;;9.10;5.57;;;;;;;;;;5024804;28;20096;-62
2022/06/17 10:36:22;;;;;;;8.52;5.65;;;;;;;;;;5026789;28;20119;-61
2022/06/17 10:38:49;;;;;;;8.70;5.50;;;;;;;;;;5026467;28;20053;-62
2022/06/17 10:41:16;;;;;;;10.07;5.88;;;;;;;;;;5028698;28;20075;-62
2022/06/17 10:43:45;;;;;;;8.63;5.57;;;;;;;;;;5025379;28;20076;-62
2022/06/17 10:46:16;;;;;;;7.97;5.72;;;;;;;;;;5027075;28;20090;-62
2022/06/17 10:48:55;;;;;;;8.50;5.80;;;;;;;;;;5026029;28;20037;-62
2022/06/17 10:51:22;;;;;;;8.40;5.78;;;;;;;;;;5027187;28;20046;-61
2022/06/17 10:53:50;;;;;;;8.02;5.82;;;;;;;;;;5026692;28;20180;-62
2022/06/17 10:56:26;;;;;;;10.60;5.40;;;;;;;;;;5025850;28;20068;-62
2022/06/17 10:59:00;;;;;;;8.70;6.15;;;;;;;;;;5008641;28;20057;-62
2022/06/17 11:01:47;;;;;;;8.73;6.03;;;;;;;;;;5027115;28;20049;-61
2022/06/17 11:04:19;;;;;;;10.32;6.13;;;;;;;;;;5000918;28;20302;-62
2022/06/17 11:06:52;;;;;;;8.73;5.60;;;;;;;;;;5025003;28;20040;-62
2022/06/17 11:09:21;;;;;;;9.68;6.07;;;;;;;;;;5025127;28;20045;-62
2022/06/17 11:12:04;;;;;;;10.50;6.60;;;;;;;;;;5023142;28;20041;-63
2022/06/17 11:14:36;;;;;;;9.85;6.72;;;;;;;;;;5024443;28;20041;-62
2022/06/17 11:17:04;;;;;;;9.75;6.32;;;;;;;;;;5023991;28;20037;-62
2022/06/17 11:19:31;;;;;;;9.30;6.10;;;;;;;;;;5024851;28;20057;-62
2022/06/17 11:22:00;;;;;;;9.48;6.53;;;;;;;;;;5024997;28;20041;-61
2022/06/17 11:24:32;;;;;;;8.45;6.20;;;;;;;;;;5022878;28;20444;-62
2022/06/17 11:27:05;;;;;;;9.30;6.00;;;;;;;;;;5022546;28;21837;-62
2022/06/17 11:29:32;;;;;;;;;;;;;;;;;;5024479;28;20128;-62
2022/06/17 11:31:59;;;;;;;7.63;5.38;;;;;;;;;;5024395;28;19983;-63
2022/06/17 11:34:27;;;;;;;8.77;6.07;;;;;;;;;;5022695;28;20048;-63
2022/06/17 11:36:57;;;;;;;8.38;5.47;;;;;;;;;;5022961;28;20042;-63
2022/06/17 11:39:33;;;;;;;8.95;5.60;;;;;;;;;;5024119;28;20057;-63
2022/06/17 11:42:22;;;;;;;9.02;5.93;;;;;;;;;;5024336;28;20052;-63
2022/06/17 11:44:56;;;;;;;7.90;5.50;;;;;;;;;;5024862;28;20124;-63
2022/06/17 11:47:25;;;;;;;7.35;5.10;;;;;;;;;;4995186;28;20045;-64
2022/06/17 11:49:54;;;;;;;8.35;6.00;;;;;;;;;;5027232;28;20064;-64
2022/06/17 11:52:29;;;;;;;8.55;5.80;;;;;;;;;;5027462;28;20424;-61
2022/06/17 11:54:56;;;;;;;7.65;5.38;;;;;;;;;;5023098;28;20539;-62
2022/06/17 11:57:31;;;;;;;10.38;6.13;;;;;;;;;;5025266;28;20041;-63
2022/06/17 11:59:58;;;;;;;9.30;5.72;;;;;;;;;;5025894;28;20049;-63
2022/06/17 12:02:26;;;;;;;9.23;6.47;;;;;;;;;;5024599;28;20164;-63
2022/06/17 12:05:05;;;;;;;11.43;6.88;;;;;;;;;;5024548;28;20033;-63
2022/06/17 12:07:51;;;;;;;9.23;6.40;;;;;;;;;;5025719;28;20651;-63
2022/06/17 12:10:23;;;;;;;9.65;7.03;;;;;;;;;;5027020;28;20040;-63
2022/06/17 12:12:51;;;;;;;8.20;6.07;;;;;;;;;;5024835;28;20056;-62
2022/06/17 12:15:30;;;;;;;8.90;6.85;;;;;;;;;;5026287;28;20369;-62
2022/06/17 12:17:58;;;;;;;11.75;7.35;;;;;;;;;;5025348;28;20049;-62
2022/06/17 12:20:43;;;;;;;10.93;6.80;;;;;;;;;;5026861;28;20037;-63
2022/06/17 12:23:13;;;;;;;9.02;6.25;;;;;;;;;;5025304;28;20045;-63
2022/06/17 12:25:47;;;;;;;9.73;6.68;;;;;;;;;;5025799;28;20045;-62
2022/06/17 12:28:35;;;;;;;10.00;6.38;;;;;;;;;;5025120;28;20041;-62
2022/06/17 12:31:06;;;;;;;9.82;6.28;;;;;;;;;;5025882;28;20045;-62
2022/06/17 12:33:43;;;;;;;10.43;7.53;;;;;;;;;;5026682;28;20094;-67
2022/06/17 12:36:12;;;;;;;10.55;7.25;;;;;;;;;;5028253;28;20103;-64
2022/06/17 12:38:48;;;;;;;10.32;6.85;;;;;;;;;;5026979;28;20526;-65
2022/06/17 12:41:18;;;;;;;9.15;6.43;;;;;;;;;;5012323;28;20049;-65
2022/06/17 12:44:07;;;;;;;9.57;6.47;;;;;;;;;;5026158;28;20041;-66
2022/06/17 12:46:43;;;;;;;10.70;7.00;;;;;;;;;;4982568;28;20996;-65
2022/06/17 12:55:05;;;;;;;9.85;6.75;;;;;;;;;;5024467;28;21768;-62
2022/06/17 12:57:50;;;;;;;8.13;5.93;;;;;;;;;;5025473;28;20041;-62
2022/06/17 13:00:24;;;;;;;12.85;8.70;;;;;;;;;;5025612;28;20049;-67
2022/06/17 13:03:13;;;;;;;7.78;5.70;;;;;;;;;;4994018;28;20079;-63
2022/06/17 13:05:43;;;;;;;7.32;5.25;;;;;;;;;;5024656;28;20075;-63
2022/06/17 13:08:36;;;;;;;10.73;5.35;;;;;;;;;;5026870;28;20045;-63
2022/06/17 13:11:13;;;;;;;8.32;5.50;;;;;;;;;;5023618;28;20448;-62
2022/06/17 13:13:49;;;;;;;8.07;5.65;;;;;;;;;;5026599;28;20053;-62
2022/06/17 13:16:16;;;;;;;8.10;5.93;;;;;;;;;;5011494;28;20033;-62
2022/06/17 13:18:42;;;;;;;9.20;5.82;;;;;;;;;;5027137;28;20398;-63
2022/06/17 13:21:14;;;;;;;8.98;5.65;;;;;;;;;;5027171;28;20043;-62
2022/06/17 13:23:59;;;;;;;8.10;5.70;;;;;;;;;;5024401;28;22670;-63
2022/06/17 13:26:35;;;;;;;9.27;6.30;;;;;;;;;;5024824;28;20061;-62
2022/06/17 13:29:06;;;;;;;8.95;6.20;;;;;;;;;;5025558;28;20352;-62
2022/06/17 13:31:37;;;;;;;9.35;5.90;;;;;;;;;;5025448;28;20041;-62
2022/06/17 13:34:05;;;;;;;8.85;6.57;;;;;;;;;;5022736;28;20040;-62
2022/06/17 13:36:54;;;;;;;8.35;6.20;;;;;;;;;;5026109;28;20037;-62
2022/06/17 13:39:23;;;;;;;9.10;6.38;;;;;;;;;;5024992;28;20455;-63
2022/06/17 13:42:04;;;;;;;9.13;6.50;;;;;;;;;;5025009;28;20045;-62
2022/06/17 13:44:47;;;;;;;8.15;6.20;;;;;;;;;;5023923;28;20073;-63
2022/06/17 13:47:22;;;;;;;9.05;6.30;;;;;;;;;;5024750;28;20041;-62
2022/06/17 13:49:49;;;;;;;13.07;6.47;;;;;;;;;;5023793;28;20038;-63
2022/06/17 13:52:30;;;;;;;8.85;6.10;;;;;;;;;;5025391;28;20045;-62
2022/06/17 13:55:01;;;;;;;10.00;5.78;;;;;;;;;;5024017;28;20038;-62
2022/06/17 13:57:40;;;;;;;8.68;5.88;;;;;;;;;;5025619;28;20427;-62
2022/06/17 14:00:33;;;;;;;8.18;5.55;;;;;;;;;;5025713;28;20611;-62
2022/06/17 14:03:05;;;;;;;9.50;5.82;;;;;;;;;;5020201;28;20132;-62
2022/06/17 14:05:39;;;;;;;9.63;5.15;;;;;;;;;;5023109;28;20037;-63
2022/06/17 14:08:16;;;;;;;9.35;4.93;;;;;;;;;;5023925;28;20083;-63
2022/06/17 14:10:50;;;;;;;8.00;5.72;;;;;;;;;;5023190;28;20092;-62
2022/06/17 14:13:17;;;;;;;7.40;5.32;;;;;;;;;;5024362;28;20140;-62
2022/06/17 14:16:02;;;;;;;8.30;5.45;;;;;;;;;;5024268;28;20042;-62
2022/06/17 14:18:48;;;;;;;9.77;5.20;;;;;;;;;;5026930;28;20085;-62
2022/06/17 14:21:41;;;;;;;7.85;5.05;;;;;;;;;;5023687;28;20164;-62
2022/06/17 14:24:12;;;;;;;7.97;5.05;;;;;;;;;;5021806;28;20047;-62
2022/06/17 14:26:41;;;;;;;7.50;5.13;;;;;;;;;;5023620;28;20426;-62
2022/06/17 14:29:14;;;;;;;9.02;5.38;;;;;;;;;;5024458;28;20084;-62
2022/06/17 14:31:42;;;;;;;7.80;5.30;;;;;;;;;;5023013;28;20037;-62
2022/06/17 14:34:17;;;;;;;8.05;5.65;;;;;;;;;;5023875;28;20045;-62
2022/06/17 14:37:03;;;;;;;9.45;5.38;;;;;;;;;;5022987;28;20029;-62
2022/06/17 14:39:39;;;;;;;8.23;5.60;;;;;;;;;;5022791;28;20053;-62
2022/06/17 14:42:11;;;;;;;9.85;6.30;;;;;;;;;;5023992;28;20157;-62
2022/06/17 14:44:38;;;;;;;8.10;5.53;;;;;;;;;;5021985;28;20033;-64
2022/06/17 14:47:29;;;;;;;9.57;5.53;;;;;;;;;;5022640;28;20840;-63
2022/06/17 14:50:04;;;;;;;11.75;6.10;;;;;;;;;;5022732;28;20044;-63
2022/06/17 14:52:32;;;;;;;8.27;6.20;;;;;;;;;;5022455;28;20048;-64
2022/06/17 14:55:00;;;;;;;9.85;6.47;;;;;;;;;;5022375;28;20107;-63
2022/06/17 14:57:27;;;;;;;9.95;6.15;;;;;;;;;;5023184;28;20132;-64
2022/06/17 15:00:11;;;;;;;8.48;5.93;;;;;;;;;;5023480;28;20049;-64
2022/06/17 15:02:45;;;;;;;9.90;6.32;;;;;;;;;;5022181;28;20453;-63
2022/06/17 15:05:21;;;;;;;9.93;6.15;;;;;;;;;;5021334;28;20749;-63
2022/06/17 15:07:50;;;;;;;7.50;5.60;;;;;;;;;;5020828;28;20519;-63
2022/06/17 15:10:16;;;;;;;9.63;6.40;;;;;;;;;;5024219;28;20033;-63
2022/06/17 15:12:48;;;;;;;8.98;5.95;;;;;;;;;;5023415;28;21645;-63
2022/06/17 15:15:35;;;;;;;7.82;5.43;;;;;;;;;;5024249;28;20033;-64
2022/06/17 15:18:03;;;;;;;6.75;5.13;;;;;;;;;;5027815;28;20041;-63
2022/06/17 15:20:35;;;;;;;7.07;5.13;;;;;;;;;;5028789;28;20124;-63
2022/06/17 15:23:20;;;;;;;8.23;5.13;;;;;;;;;;5027150;28;20112;-63
2022/06/17 15:25:51;;;;;;;9.90;5.97;;;;;;;;;;5028551;28;20486;-63